sensor_id;sensor_type;location;lat;lon;timestamp;P1;durP1;ratioP1;P2;durP2;ratioP2
82170;SDS011;71755;48.038;14.346;2024-01-15T00:02:12;15.20;;;6.05;;
82170;SDS011;71755;48.038;14.346;2024-01-15T00:04:38;12.43;;;4.97;;
82170;SDS011;71755;48.038;14.346;2024-01-15T00:07:05;18.52;;;9.63;;
82170;SDS011;71755;48.038;14.346;2024-01-15T00:09:31;14.93;;;5.45;;
82170;SDS011;71755;48.038;14.346;2024-01-15T00:11:57;29.45;;;9.13;;
82170;SDS011;71755;48.038;14.346;2024-01-15T00:14:23;32.97;;;8.82;;
82170;SDS011;71755;48.038;14.346;2024-01-15T00:16:48;25.42;;;7.55;;
82170;SDS011;71755;48.038;14.346;2024-01-15T00:19:17;15.95;;;7.88;;
82170;SDS011;71755;48.038;14.346;2024-01-15T00:21:43;27.05;;;8.07;;
82170;SDS011;71755;48.038;14.346;2024-01-15T00:24:10;24.00;;;7.55;;
82170;SDS011;71755;48.038;14.346;2024-01-15T00:26:36;34.78;;;10.88;;
82170;SDS011;71755;48.038;14.346;2024-01-15T00:29:02;17.25;;;7.65;;
82170;SDS011;71755;48.038;14.346;2024-01-15T00:31:29;10.52;;;5.47;;
82170;SDS011;71755;48.038;14.346;2024-01-15T00:33:55;8.95;;;4.38;;
82170;SDS011;71755;48.038;14.346;2024-01-15T00:36:23;15.57;;;5.68;;
82170;SDS011;71755;48.038;14.346;2024-01-15T00:38:49;9.65;;;6.55;;
82170;SDS011;71755;48.038;14.346;2024-01-15T00:41:15;18.02;;;5.43;;
82170;SDS011;71755;48.038;14.346;2024-01-15T00:43:41;31.05;;;10.60;;
82170;SDS011;71755;48.038;14.346;2024-01-15T00:46:07;12.73;;;5.65;;
82170;SDS011;71755;48.038;14.346;2024-01-15T00:48:33;11.27;;;4.15;;
82170;SDS011;71755;48.038;14.346;2024-01-15T00:50:59;8.32;;;3.83;;
82170;SDS011;71755;48.038;14.346;2024-01-15T00:53:25;11.65;;;3.63;;
82170;SDS011;71755;48.038;14.346;2024-01-15T00:55:51;13.93;;;6.85;;
82170;SDS011;71755;48.038;14.346;2024-01-15T00:58:16;8.32;;;5.82;;
82170;SDS011;71755;48.038;14.346;2024-01-15T01:00:42;18.25;;;7.35;;
82170;SDS011;71755;48.038;14.346;2024-01-15T01:03:08;22.75;;;3.85;;
82170;SDS011;71755;48.038;14.346;2024-01-15T01:05:34;21.23;;;7.07;;
82170;SDS011;71755;48.038;14.346;2024-01-15T01:08:00;6.68;;;4.05;;
82170;SDS011;71755;48.038;14.346;2024-01-15T01:10:27;8.35;;;5.13;;
82170;SDS011;71755;48.038;14.346;2024-01-15T01:12:53;9.30;;;4.85;;
82170;SDS011;71755;48.038;14.346;2024-01-15T01:15:19;12.50;;;4.90;;
82170;SDS011;71755;48.038;14.346;2024-01-15T01:17:45;13.73;;;3.97;;
82170;SDS011;71755;48.038;14.346;2024-01-15T01:20:11;6.93;;;3.55;;
82170;SDS011;71755;48.038;14.346;2024-01-15T01:22:37;16.50;;;5.78;;
82170;SDS011;71755;48.038;14.346;2024-01-15T01:25:04;11.20;;;3.78;;
82170;SDS011;71755;48.038;14.346;2024-01-15T01:27:30;14.57;;;3.40;;
82170;SDS011;71755;48.038;14.346;2024-01-15T01:29:56;8.60;;;3.80;;
82170;SDS011;71755;48.038;14.346;2024-01-15T01:32:21;11.45;;;4.53;;
82170;SDS011;71755;48.038;14.346;2024-01-15T01:34:47;18.08;;;5.00;;
82170;SDS011;71755;48.038;14.346;2024-01-15T01:37:13;8.90;;;3.97;;
82170;SDS011;71755;48.038;14.346;2024-01-15T01:39:40;17.25;;;4.53;;
82170;SDS011;71755;48.038;14.346;2024-01-15T01:42:07;3.45;;;2.88;;
82170;SDS011;71755;48.038;14.346;2024-01-15T01:44:33;6.88;;;3.03;;
82170;SDS011;71755;48.038;14.346;2024-01-15T01:46:59;7.57;;;3.65;;
82170;SDS011;71755;48.038;14.346;2024-01-15T01:49:26;12.15;;;5.15;;
82170;SDS011;71755;48.038;14.346;2024-01-15T01:51:53;4.35;;;3.10;;
82170;SDS011;71755;48.038;14.346;2024-01-15T01:54:22;10.35;;;3.97;;
82170;SDS011;71755;48.038;14.346;2024-01-15T01:56:49;12.93;;;3.47;;
82170;SDS011;71755;48.038;14.346;2024-01-15T01:59:16;7.25;;;3.47;;
82170;SDS011;71755;48.038;14.346;2024-01-15T02:01:43;20.20;;;7.15;;
82170;SDS011;71755;48.038;14.346;2024-01-15T02:04:10;11.52;;;4.15;;
82170;SDS011;71755;48.038;14.346;2024-01-15T02:06:37;6.88;;;3.42;;
82170;SDS011;71755;48.038;14.346;2024-01-15T02:09:03;8.27;;;3.13;;
82170;SDS011;71755;48.038;14.346;2024-01-15T02:11:31;5.80;;;3.22;;
82170;SDS011;71755;48.038;14.346;2024-01-15T02:13:57;9.18;;;4.20;;
82170;SDS011;71755;48.038;14.346;2024-01-15T02:16:22;22.95;;;6.68;;
82170;SDS011;71755;48.038;14.346;2024-01-15T02:18:50;6.20;;;4.45;;
82170;SDS011;71755;48.038;14.346;2024-01-15T02:21:16;12.90;;;7.32;;
82170;SDS011;71755;48.038;14.346;2024-01-15T02:23:41;7.65;;;3.45;;
82170;SDS011;71755;48.038;14.346;2024-01-15T02:26:07;12.25;;;4.43;;
82170;SDS011;71755;48.038;14.346;2024-01-15T02:28:34;17.73;;;4.47;;
82170;SDS011;71755;48.038;14.346;2024-01-15T02:30:59;10.85;;;5.55;;
82170;SDS011;71755;48.038;14.346;2024-01-15T02:33:25;21.77;;;7.50;;
82170;SDS011;71755;48.038;14.346;2024-01-15T02:35:51;23.95;;;7.28;;
82170;SDS011;71755;48.038;14.346;2024-01-15T02:38:17;14.18;;;5.20;;
82170;SDS011;71755;48.038;14.346;2024-01-15T02:40:46;11.27;;;4.72;;
82170;SDS011;71755;48.038;14.346;2024-01-15T02:43:12;12.45;;;6.13;;
82170;SDS011;71755;48.038;14.346;2024-01-15T02:45:39;18.80;;;7.97;;
82170;SDS011;71755;48.038;14.346;2024-01-15T02:48:05;14.60;;;6.47;;
82170;SDS011;71755;48.038;14.346;2024-01-15T02:50:31;9.07;;;4.32;;
82170;SDS011;71755;48.038;14.346;2024-01-15T02:52:57;7.22;;;4.55;;
82170;SDS011;71755;48.038;14.346;2024-01-15T02:55:22;14.70;;;4.45;;
82170;SDS011;71755;48.038;14.346;2024-01-15T02:57:48;9.35;;;5.40;;
82170;SDS011;71755;48.038;14.346;2024-01-15T03:00:14;9.10;;;3.85;;
82170;SDS011;71755;48.038;14.346;2024-01-15T03:02:40;13.57;;;5.93;;
82170;SDS011;71755;48.038;14.346;2024-01-15T03:05:09;15.55;;;5.85;;
82170;SDS011;71755;48.038;14.346;2024-01-15T03:07:35;11.57;;;5.53;;
82170;SDS011;71755;48.038;14.346;2024-01-15T03:10:01;15.38;;;5.90;;
82170;SDS011;71755;48.038;14.346;2024-01-15T03:12:27;12.50;;;5.25;;
82170;SDS011;71755;48.038;14.346;2024-01-15T03:14:53;7.22;;;3.72;;
82170;SDS011;71755;48.038;14.346;2024-01-15T03:17:19;15.18;;;6.38;;
82170;SDS011;71755;48.038;14.346;2024-01-15T03:19:45;15.13;;;5.18;;
82170;SDS011;71755;48.038;14.346;2024-01-15T03:22:10;5.07;;;2.78;;
82170;SDS011;71755;48.038;14.346;2024-01-15T03:24:36;4.55;;;2.50;;
82170;SDS011;71755;48.038;14.346;2024-01-15T03:27:02;12.63;;;5.25;;
82170;SDS011;71755;48.038;14.346;2024-01-15T03:29:28;7.18;;;4.15;;
82170;SDS011;71755;48.038;14.346;2024-01-15T03:31:54;2.83;;;2.10;;
82170;SDS011;71755;48.038;14.346;2024-01-15T03:34:20;8.38;;;2.97;;
82170;SDS011;71755;48.038;14.346;2024-01-15T03:36:45;3.97;;;2.63;;
82170;SDS011;71755;48.038;14.346;2024-01-15T03:39:11;6.45;;;3.20;;
82170;SDS011;71755;48.038;14.346;2024-01-15T03:41:36;5.63;;;3.35;;
82170;SDS011;71755;48.038;14.346;2024-01-15T03:44:02;7.05;;;3.20;;
82170;SDS011;71755;48.038;14.346;2024-01-15T03:46:28;8.55;;;4.03;;
82170;SDS011;71755;48.038;14.346;2024-01-15T03:48:54;3.83;;;2.47;;
82170;SDS011;71755;48.038;14.346;2024-01-15T03:51:20;6.25;;;3.17;;
82170;SDS011;71755;48.038;14.346;2024-01-15T03:53:46;6.38;;;3.53;;
82170;SDS011;71755;48.038;14.346;2024-01-15T03:56:12;5.13;;;2.50;;
82170;SDS011;71755;48.038;14.346;2024-01-15T03:58:38;4.35;;;2.45;;
82170;SDS011;71755;48.038;14.346;2024-01-15T04:01:06;6.60;;;2.53;;
82170;SDS011;71755;48.038;14.346;2024-01-15T04:03:34;6.32;;;3.13;;
82170;SDS011;71755;48.038;14.346;2024-01-15T04:06:00;8.10;;;3.17;;
82170;SDS011;71755;48.038;14.346;2024-01-15T04:08:26;2.55;;;1.83;;
82170;SDS011;71755;48.038;14.346;2024-01-15T04:10:52;11.50;;;3.20;;
82170;SDS011;71755;48.038;14.346;2024-01-15T04:13:17;11.50;;;2.50;;
82170;SDS011;71755;48.038;14.346;2024-01-15T04:15:43;7.30;;;3.03;;
82170;SDS011;71755;48.038;14.346;2024-01-15T04:18:09;2.15;;;1.70;;
82170;SDS011;71755;48.038;14.346;2024-01-15T04:20:35;15.77;;;3.35;;
82170;SDS011;71755;48.038;14.346;2024-01-15T04:23:01;0.93;;;0.93;;
82170;SDS011;71755;48.038;14.346;2024-01-15T04:25:27;9.20;;;2.88;;
82170;SDS011;71755;48.038;14.346;2024-01-15T04:27:53;6.85;;;1.88;;
82170;SDS011;71755;48.038;14.346;2024-01-15T04:30:19;4.22;;;1.90;;
82170;SDS011;71755;48.038;14.346;2024-01-15T04:32:44;5.55;;;3.13;;
82170;SDS011;71755;48.038;14.346;2024-01-15T04:35:10;4.93;;;2.03;;
82170;SDS011;71755;48.038;14.346;2024-01-15T04:37:38;7.00;;;2.53;;
82170;SDS011;71755;48.038;14.346;2024-01-15T04:40:04;3.75;;;1.95;;
82170;SDS011;71755;48.038;14.346;2024-01-15T04:42:31;5.90;;;2.92;;
82170;SDS011;71755;48.038;14.346;2024-01-15T04:44:57;8.38;;;1.90;;
82170;SDS011;71755;48.038;14.346;2024-01-15T04:47:24;5.82;;;1.90;;
82170;SDS011;71755;48.038;14.346;2024-01-15T04:49:50;2.45;;;1.33;;
82170;SDS011;71755;48.038;14.346;2024-01-15T04:52:16;6.40;;;1.42;;
82170;SDS011;71755;48.038;14.346;2024-01-15T04:54:42;2.88;;;2.55;;
82170;SDS011;71755;48.038;14.346;2024-01-15T04:57:09;7.03;;;1.52;;
82170;SDS011;71755;48.038;14.346;2024-01-15T04:59:34;4.28;;;2.38;;
82170;SDS011;71755;48.038;14.346;2024-01-15T05:02:00;4.20;;;1.42;;
82170;SDS011;71755;48.038;14.346;2024-01-15T05:04:26;4.32;;;1.88;;
82170;SDS011;71755;48.038;14.346;2024-01-15T05:06:52;6.78;;;3.05;;
82170;SDS011;71755;48.038;14.346;2024-01-15T05:09:19;17.13;;;2.60;;
82170;SDS011;71755;48.038;14.346;2024-01-15T05:11:44;2.88;;;1.90;;
82170;SDS011;71755;48.038;14.346;2024-01-15T05:14:10;6.88;;;1.90;;
82170;SDS011;71755;48.038;14.346;2024-01-15T05:16:39;6.10;;;2.80;;
82170;SDS011;71755;48.038;14.346;2024-01-15T05:19:12;7.20;;;2.47;;
82170;SDS011;71755;48.038;14.346;2024-01-15T05:21:37;8.20;;;3.42;;
82170;SDS011;71755;48.038;14.346;2024-01-15T05:24:03;5.53;;;3.05;;
82170;SDS011;71755;48.038;14.346;2024-01-15T05:26:29;9.13;;;2.63;;
82170;SDS011;71755;48.038;14.346;2024-01-15T05:28:55;6.65;;;3.88;;
82170;SDS011;71755;48.038;14.346;2024-01-15T05:31:21;6.82;;;2.50;;
82170;SDS011;71755;48.038;14.346;2024-01-15T05:33:47;9.10;;;3.85;;
82170;SDS011;71755;48.038;14.346;2024-01-15T05:36:13;6.82;;;2.67;;
82170;SDS011;71755;48.038;14.346;2024-01-15T05:38:39;5.50;;;3.10;;
82170;SDS011;71755;48.038;14.346;2024-01-15T05:41:05;4.50;;;2.40;;
82170;SDS011;71755;48.038;14.346;2024-01-15T05:43:31;10.20;;;3.85;;
82170;SDS011;71755;48.038;14.346;2024-01-15T05:45:57;3.90;;;2.13;;
82170;SDS011;71755;48.038;14.346;2024-01-15T05:48:23;10.40;;;4.03;;
82170;SDS011;71755;48.038;14.346;2024-01-15T05:50:49;4.72;;;2.80;;
82170;SDS011;71755;48.038;14.346;2024-01-15T05:53:15;5.03;;;2.35;;
82170;SDS011;71755;48.038;14.346;2024-01-15T05:55:41;3.80;;;2.15;;
82170;SDS011;71755;48.038;14.346;2024-01-15T05:58:06;11.38;;;2.90;;
82170;SDS011;71755;48.038;14.346;2024-01-15T06:00:32;12.10;;;2.42;;
82170;SDS011;71755;48.038;14.346;2024-01-15T06:03:00;6.68;;;2.00;;
82170;SDS011;71755;48.038;14.346;2024-01-15T06:05:26;7.07;;;2.58;;
82170;SDS011;71755;48.038;14.346;2024-01-15T06:07:52;6.78;;;2.22;;
82170;SDS011;71755;48.038;14.346;2024-01-15T06:10:18;5.30;;;2.38;;
82170;SDS011;71755;48.038;14.346;2024-01-15T06:12:44;5.57;;;1.80;;
82170;SDS011;71755;48.038;14.346;2024-01-15T06:15:10;5.32;;;2.80;;
82170;SDS011;71755;48.038;14.346;2024-01-15T06:17:37;5.07;;;2.30;;
82170;SDS011;71755;48.038;14.346;2024-01-15T06:20:03;5.68;;;3.30;;
82170;SDS011;71755;48.038;14.346;2024-01-15T06:22:29;3.42;;;2.33;;
82170;SDS011;71755;48.038;14.346;2024-01-15T06:24:55;5.07;;;2.38;;
82170;SDS011;71755;48.038;14.346;2024-01-15T06:27:21;2.45;;;1.52;;
82170;SDS011;71755;48.038;14.346;2024-01-15T06:29:47;5.10;;;2.38;;
82170;SDS011;71755;48.038;14.346;2024-01-15T06:32:13;4.10;;;1.85;;
82170;SDS011;71755;48.038;14.346;2024-01-15T06:34:39;4.82;;;2.05;;
82170;SDS011;71755;48.038;14.346;2024-01-15T06:37:05;4.15;;;2.40;;
82170;SDS011;71755;48.038;14.346;2024-01-15T06:39:31;2.97;;;1.98;;
82170;SDS011;71755;48.038;14.346;2024-01-15T06:41:57;4.38;;;1.70;;
82170;SDS011;71755;48.038;14.346;2024-01-15T06:44:24;3.58;;;2.55;;
82170;SDS011;71755;48.038;14.346;2024-01-15T06:46:50;5.85;;;3.10;;
82170;SDS011;71755;48.038;14.346;2024-01-15T06:49:17;5.65;;;2.63;;
82170;SDS011;71755;48.038;14.346;2024-01-15T06:51:43;6.68;;;3.92;;
82170;SDS011;71755;48.038;14.346;2024-01-15T06:54:08;4.75;;;1.90;;
82170;SDS011;71755;48.038;14.346;2024-01-15T06:56:34;1.90;;;1.25;;
82170;SDS011;71755;48.038;14.346;2024-01-15T06:59:00;9.77;;;2.72;;
82170;SDS011;71755;48.038;14.346;2024-01-15T07:01:26;3.40;;;2.17;;
82170;SDS011;71755;48.038;14.346;2024-01-15T07:03:52;3.90;;;2.67;;
82170;SDS011;71755;48.038;14.346;2024-01-15T07:06:18;7.18;;;2.78;;
82170;SDS011;71755;48.038;14.346;2024-01-15T07:08:45;2.88;;;1.25;;
82170;SDS011;71755;48.038;14.346;2024-01-15T07:11:12;4.05;;;2.92;;
82170;SDS011;71755;48.038;14.346;2024-01-15T07:13:37;6.45;;;3.28;;
82170;SDS011;71755;48.038;14.346;2024-01-15T07:16:03;5.10;;;2.17;;
82170;SDS011;71755;48.038;14.346;2024-01-15T07:18:29;6.68;;;2.60;;
82170;SDS011;71755;48.038;14.346;2024-01-15T07:20:55;6.00;;;2.00;;
82170;SDS011;71755;48.038;14.346;2024-01-15T07:23:22;2.88;;;1.65;;
82170;SDS011;71755;48.038;14.346;2024-01-15T07:25:48;2.42;;;1.70;;
82170;SDS011;71755;48.038;14.346;2024-01-15T07:28:14;7.30;;;2.78;;
82170;SDS011;71755;48.038;14.346;2024-01-15T07:30:39;10.20;;;2.88;;
82170;SDS011;71755;48.038;14.346;2024-01-15T07:33:05;8.93;;;2.67;;
82170;SDS011;71755;48.038;14.346;2024-01-15T07:35:31;2.30;;;1.55;;
82170;SDS011;71755;48.038;14.346;2024-01-15T07:37:57;9.88;;;3.60;;
82170;SDS011;71755;48.038;14.346;2024-01-15T07:40:23;3.20;;;1.92;;
82170;SDS011;71755;48.038;14.346;2024-01-15T07:42:50;5.55;;;2.40;;
82170;SDS011;71755;48.038;14.346;2024-01-15T07:45:16;2.53;;;1.20;;
82170;SDS011;71755;48.038;14.346;2024-01-15T07:47:42;4.18;;;2.33;;
82170;SDS011;71755;48.038;14.346;2024-01-15T07:50:09;3.95;;;2.58;;
82170;SDS011;71755;48.038;14.346;2024-01-15T07:52:35;4.55;;;2.65;;
82170;SDS011;71755;48.038;14.346;2024-01-15T07:55:01;7.28;;;3.05;;
82170;SDS011;71755;48.038;14.346;2024-01-15T07:57:29;7.07;;;3.70;;
82170;SDS011;71755;48.038;14.346;2024-01-15T07:59:54;3.70;;;2.92;;
82170;SDS011;71755;48.038;14.346;2024-01-15T08:02:20;9.25;;;3.88;;
82170;SDS011;71755;48.038;14.346;2024-01-15T08:04:47;5.60;;;2.10;;
82170;SDS011;71755;48.038;14.346;2024-01-15T08:07:13;3.83;;;2.38;;
82170;SDS011;71755;48.038;14.346;2024-01-15T08:09:39;6.57;;;3.28;;
82170;SDS011;71755;48.038;14.346;2024-01-15T08:12:05;5.57;;;3.25;;
82170;SDS011;71755;48.038;14.346;2024-01-15T08:14:31;3.13;;;1.98;;
82170;SDS011;71755;48.038;14.346;2024-01-15T08:16:57;8.50;;;3.60;;
82170;SDS011;71755;48.038;14.346;2024-01-15T08:19:22;7.53;;;3.42;;
82170;SDS011;71755;48.038;14.346;2024-01-15T08:21:49;7.97;;;1.48;;
82170;SDS011;71755;48.038;14.346;2024-01-15T08:24:15;2.97;;;2.58;;
82170;SDS011;71755;48.038;14.346;2024-01-15T08:26:42;7.22;;;2.05;;
82170;SDS011;71755;48.038;14.346;2024-01-15T08:29:08;4.53;;;2.53;;
82170;SDS011;71755;48.038;14.346;2024-01-15T08:31:34;6.10;;;3.63;;
82170;SDS011;71755;48.038;14.346;2024-01-15T08:34:00;3.50;;;2.00;;
82170;SDS011;71755;48.038;14.346;2024-01-15T08:36:27;4.88;;;3.47;;
82170;SDS011;71755;48.038;14.346;2024-01-15T08:38:55;6.53;;;4.03;;
82170;SDS011;71755;48.038;14.346;2024-01-15T08:41:20;11.50;;;3.85;;
82170;SDS011;71755;48.038;14.346;2024-01-15T08:43:46;5.78;;;3.08;;
82170;SDS011;71755;48.038;14.346;2024-01-15T08:46:13;4.55;;;3.00;;
82170;SDS011;71755;48.038;14.346;2024-01-15T08:48:39;5.30;;;2.72;;
82170;SDS011;71755;48.038;14.346;2024-01-15T08:51:05;6.82;;;3.03;;
82170;SDS011;71755;48.038;14.346;2024-01-15T08:53:31;7.22;;;3.90;;
82170;SDS011;71755;48.038;14.346;2024-01-15T08:55:57;9.80;;;4.03;;
82170;SDS011;71755;48.038;14.346;2024-01-15T08:58:23;9.25;;;4.25;;
82170;SDS011;71755;48.038;14.346;2024-01-15T09:00:50;2.65;;;1.67;;
82170;SDS011;71755;48.038;14.346;2024-01-15T09:03:18;10.68;;;4.53;;
82170;SDS011;71755;48.038;14.346;2024-01-15T09:05:44;7.47;;;3.75;;
82170;SDS011;71755;48.038;14.346;2024-01-15T09:08:09;5.03;;;2.42;;
82170;SDS011;71755;48.038;14.346;2024-01-15T09:10:35;5.07;;;2.33;;
82170;SDS011;71755;48.038;14.346;2024-01-15T09:13:01;7.07;;;2.92;;
82170;SDS011;71755;48.038;14.346;2024-01-15T09:15:29;6.90;;;3.67;;
82170;SDS011;71755;48.038;14.346;2024-01-15T09:17:55;8.55;;;3.38;;
82170;SDS011;71755;48.038;14.346;2024-01-15T09:20:22;9.23;;;3.92;;
82170;SDS011;71755;48.038;14.346;2024-01-15T09:22:49;9.48;;;2.30;;
82170;SDS011;71755;48.038;14.346;2024-01-15T09:25:15;3.40;;;1.67;;
82170;SDS011;71755;48.038;14.346;2024-01-15T09:27:41;3.35;;;1.73;;
82170;SDS011;71755;48.038;14.346;2024-01-15T09:30:07;6.10;;;2.70;;
82170;SDS011;71755;48.038;14.346;2024-01-15T09:32:33;4.95;;;2.42;;
82170;SDS011;71755;48.038;14.346;2024-01-15T09:34:59;4.03;;;2.03;;
82170;SDS011;71755;48.038;14.346;2024-01-15T09:37:25;6.28;;;2.05;;
82170;SDS011;71755;48.038;14.346;2024-01-15T09:39:51;2.90;;;1.85;;
82170;SDS011;71755;48.038;14.346;2024-01-15T09:42:17;4.85;;;2.22;;
82170;SDS011;71755;48.038;14.346;2024-01-15T09:44:43;6.20;;;2.38;;
82170;SDS011;71755;48.038;14.346;2024-01-15T09:47:11;7.80;;;2.70;;
82170;SDS011;71755;48.038;14.346;2024-01-15T09:49:38;7.97;;;2.00;;
82170;SDS011;71755;48.038;14.346;2024-01-15T09:52:06;4.53;;;2.63;;
82170;SDS011;71755;48.038;14.346;2024-01-15T09:54:33;2.80;;;2.03;;
82170;SDS011;71755;48.038;14.346;2024-01-15T09:57:00;8.15;;;3.53;;
82170;SDS011;71755;48.038;14.346;2024-01-15T09:59:26;7.07;;;3.90;;
82170;SDS011;71755;48.038;14.346;2024-01-15T10:01:54;3.97;;;2.50;;
82170;SDS011;71755;48.038;14.346;2024-01-15T10:04:22;5.82;;;1.92;;
82170;SDS011;71755;48.038;14.346;2024-01-15T10:06:49;6.90;;;2.97;;
82170;SDS011;71755;48.038;14.346;2024-01-15T10:09:17;5.30;;;2.58;;
82170;SDS011;71755;48.038;14.346;2024-01-15T10:11:44;7.22;;;2.97;;
82170;SDS011;71755;48.038;14.346;2024-01-15T10:14:10;10.63;;;3.35;;
82170;SDS011;71755;48.038;14.346;2024-01-15T10:16:42;3.75;;;1.83;;
82170;SDS011;71755;48.038;14.346;2024-01-15T10:19:09;3.45;;;2.92;;
82170;SDS011;71755;48.038;14.346;2024-01-15T10:21:35;6.57;;;2.60;;
82170;SDS011;71755;48.038;14.346;2024-01-15T10:24:02;6.70;;;3.88;;
82170;SDS011;71755;48.038;14.346;2024-01-15T10:26:30;5.18;;;2.58;;
82170;SDS011;71755;48.038;14.346;2024-01-15T10:28:58;5.60;;;2.90;;
82170;SDS011;71755;48.038;14.346;2024-01-15T10:31:25;5.63;;;2.60;;
82170;SDS011;71755;48.038;14.346;2024-01-15T10:33:51;6.65;;;2.08;;
82170;SDS011;71755;48.038;14.346;2024-01-15T10:36:17;4.07;;;2.25;;
82170;SDS011;71755;48.038;14.346;2024-01-15T10:38:44;5.45;;;1.98;;
82170;SDS011;71755;48.038;14.346;2024-01-15T10:41:11;7.22;;;2.65;;
82170;SDS011;71755;48.038;14.346;2024-01-15T10:43:38;4.28;;;2.17;;
82170;SDS011;71755;48.038;14.346;2024-01-15T10:46:06;2.65;;;1.40;;
82170;SDS011;71755;48.038;14.346;2024-01-15T10:48:33;3.00;;;1.98;;
82170;SDS011;71755;48.038;14.346;2024-01-15T10:51:01;5.97;;;2.08;;
82170;SDS011;71755;48.038;14.346;2024-01-15T10:53:37;5.60;;;2.35;;
82170;SDS011;71755;48.038;14.346;2024-01-15T10:58:34;3.03;;;2.03;;
82170;SDS011;71755;48.038;14.346;2024-01-15T11:01:01;2.70;;;1.52;;
82170;SDS011;71755;48.038;14.346;2024-01-15T11:03:28;2.30;;;1.17;;
82170;SDS011;71755;48.038;14.346;2024-01-15T11:05:54;1.23;;;1.10;;
82170;SDS011;71755;48.038;14.346;2024-01-15T11:08:20;1.23;;;1.13;;
82170;SDS011;71755;48.038;14.346;2024-01-15T11:10:47;4.72;;;2.70;;
82170;SDS011;71755;48.038;14.346;2024-01-15T11:18:43;6.93;;;2.95;;
82170;SDS011;71755;48.038;14.346;2024-01-15T11:21:25;6.63;;;3.22;;
82170;SDS011;71755;48.038;14.346;2024-01-15T11:23:58;4.88;;;2.85;;
82170;SDS011;71755;48.038;14.346;2024-01-15T11:26:31;4.65;;;1.98;;
82170;SDS011;71755;48.038;14.346;2024-01-15T11:29:04;3.45;;;1.90;;
82170;SDS011;71755;48.038;14.346;2024-01-15T11:32:17;3.22;;;1.75;;
82170;SDS011;71755;48.038;14.346;2024-01-15T11:34:20;1.58;;;1.15;;
82170;SDS011;71755;48.038;14.346;2024-01-15T11:37:06;2.25;;;1.73;;
82170;SDS011;71755;48.038;14.346;2024-01-15T11:41:58;6.32;;;3.25;;
82170;SDS011;71755;48.038;14.346;2024-01-15T11:44:25;2.40;;;2.00;;
82170;SDS011;71755;48.038;14.346;2024-01-15T11:52:15;2.33;;;1.60;;
82170;SDS011;71755;48.038;14.346;2024-01-15T11:55:29;1.70;;;1.02;;
82170;SDS011;71755;48.038;14.346;2024-01-15T11:57:45;1.85;;;1.05;;
82170;SDS011;71755;48.038;14.346;2024-01-15T12:00:15;4.32;;;2.40;;
82170;SDS011;71755;48.038;14.346;2024-01-15T12:02:42;4.60;;;1.70;;
82170;SDS011;71755;48.038;14.346;2024-01-15T12:05:10;0.90;;;0.88;;
82170;SDS011;71755;48.038;14.346;2024-01-15T12:07:39;1.60;;;0.95;;
82170;SDS011;71755;48.038;14.346;2024-01-15T12:10:12;2.47;;;1.38;;
82170;SDS011;71755;48.038;14.346;2024-01-15T12:12:53;1.98;;;1.60;;
82170;SDS011;71755;48.038;14.346;2024-01-15T12:15:30;1.55;;;1.10;;
82170;SDS011;71755;48.038;14.346;2024-01-15T12:18:01;1.67;;;1.25;;
82170;SDS011;71755;48.038;14.346;2024-01-15T12:20:30;1.85;;;1.10;;
82170;SDS011;71755;48.038;14.346;2024-01-15T12:25:25;2.92;;;0.95;;
82170;SDS011;71755;48.038;14.346;2024-01-15T12:27:54;3.22;;;1.58;;
82170;SDS011;71755;48.038;14.346;2024-01-15T12:30:21;2.95;;;1.63;;
82170;SDS011;71755;48.038;14.346;2024-01-15T12:32:47;1.80;;;1.45;;
82170;SDS011;71755;48.038;14.346;2024-01-15T12:35:13;1.20;;;1.00;;
82170;SDS011;71755;48.038;14.346;2024-01-15T12:37:41;4.93;;;1.00;;
82170;SDS011;71755;48.038;14.346;2024-01-15T12:40:09;2.30;;;1.10;;
82170;SDS011;71755;48.038;14.346;2024-01-15T12:42:36;2.55;;;1.17;;
82170;SDS011;71755;48.038;14.346;2024-01-15T12:45:02;1.20;;;0.85;;
82170;SDS011;71755;48.038;14.346;2024-01-15T12:47:31;2.78;;;1.17;;
82170;SDS011;71755;48.038;14.346;2024-01-15T12:49:58;2.22;;;1.40;;
82170;SDS011;71755;48.038;14.346;2024-01-15T12:52:28;1.15;;;1.05;;
82170;SDS011;71755;48.038;14.346;2024-01-15T12:54:54;1.85;;;1.52;;
82170;SDS011;71755;48.038;14.346;2024-01-15T12:57:20;4.25;;;1.10;;
82170;SDS011;71755;48.038;14.346;2024-01-15T12:59:47;2.30;;;1.30;;
82170;SDS011;71755;48.038;14.346;2024-01-15T13:02:13;4.63;;;2.97;;
82170;SDS011;71755;48.038;14.346;2024-01-15T13:04:39;1.85;;;1.27;;
82170;SDS011;71755;48.038;14.346;2024-01-15T13:07:06;0.90;;;0.90;;
82170;SDS011;71755;48.038;14.346;2024-01-15T13:09:33;1.27;;;1.17;;
82170;SDS011;71755;48.038;14.346;2024-01-15T13:12:00;1.90;;;1.00;;
82170;SDS011;71755;48.038;14.346;2024-01-15T13:14:27;2.83;;;1.35;;
82170;SDS011;71755;48.038;14.346;2024-01-15T13:16:53;0.98;;;0.80;;
82170;SDS011;71755;48.038;14.346;2024-01-15T13:19:20;0.85;;;0.82;;
82170;SDS011;71755;48.038;14.346;2024-01-15T13:21:49;5.85;;;1.88;;
82170;SDS011;71755;48.038;14.346;2024-01-15T13:24:17;0.57;;;0.57;;
82170;SDS011;71755;48.038;14.346;2024-01-15T13:26:43;1.27;;;0.77;;
82170;SDS011;71755;48.038;14.346;2024-01-15T13:29:09;1.17;;;0.70;;
82170;SDS011;71755;48.038;14.346;2024-01-15T13:31:35;2.72;;;1.33;;
82170;SDS011;71755;48.038;14.346;2024-01-15T13:34:00;2.08;;;1.27;;
82170;SDS011;71755;48.038;14.346;2024-01-15T13:36:27;8.82;;;1.20;;
82170;SDS011;71755;48.038;14.346;2024-01-15T13:38:52;1.05;;;0.65;;
82170;SDS011;71755;48.038;14.346;2024-01-15T13:41:19;1.38;;;0.98;;
82170;SDS011;71755;48.038;14.346;2024-01-15T13:43:53;2.67;;;0.82;;
82170;SDS011;71755;48.038;14.346;2024-01-15T13:46:20;1.15;;;1.05;;
82170;SDS011;71755;48.038;14.346;2024-01-15T13:51:17;2.53;;;2.17;;
82170;SDS011;71755;48.038;14.346;2024-01-15T13:53:42;2.15;;;1.40;;
82170;SDS011;71755;48.038;14.346;2024-01-15T13:56:08;3.50;;;1.20;;
82170;SDS011;71755;48.038;14.346;2024-01-15T13:58:36;1.15;;;0.90;;
82170;SDS011;71755;48.038;14.346;2024-01-15T14:01:02;3.72;;;1.65;;
82170;SDS011;71755;48.038;14.346;2024-01-15T14:03:31;1.00;;;0.75;;
82170;SDS011;71755;48.038;14.346;2024-01-15T14:05:57;4.80;;;1.33;;
82170;SDS011;71755;48.038;14.346;2024-01-15T14:08:24;1.85;;;1.00;;
82170;SDS011;71755;48.038;14.346;2024-01-15T14:10:51;2.63;;;1.27;;
82170;SDS011;71755;48.038;14.346;2024-01-15T14:13:17;0.75;;;0.75;;
82170;SDS011;71755;48.038;14.346;2024-01-15T14:15:42;1.30;;;0.77;;
82170;SDS011;71755;48.038;14.346;2024-01-15T14:18:08;0.65;;;0.65;;
82170;SDS011;71755;48.038;14.346;2024-01-15T14:20:34;2.42;;;1.23;;
82170;SDS011;71755;48.038;14.346;2024-01-15T14:22:59;2.55;;;0.80;;
82170;SDS011;71755;48.038;14.346;2024-01-15T14:25:25;1.17;;;0.77;;
82170;SDS011;71755;48.038;14.346;2024-01-15T14:27:51;3.00;;;1.90;;
82170;SDS011;71755;48.038;14.346;2024-01-15T14:30:17;1.05;;;1.05;;
82170;SDS011;71755;48.038;14.346;2024-01-15T14:32:43;1.20;;;0.80;;
82170;SDS011;71755;48.038;14.346;2024-01-15T14:35:10;1.15;;;0.43;;
82170;SDS011;71755;48.038;14.346;2024-01-15T14:37:39;1.23;;;0.70;;
82170;SDS011;71755;48.038;14.346;2024-01-15T14:40:08;1.70;;;0.95;;
82170;SDS011;71755;48.038;14.346;2024-01-15T14:42:37;1.75;;;0.73;;
82170;SDS011;71755;48.038;14.346;2024-01-15T14:45:03;2.95;;;1.42;;
82170;SDS011;71755;48.038;14.346;2024-01-15T14:47:37;1.73;;;1.20;;
82170;SDS011;71755;48.038;14.346;2024-01-15T14:50:05;1.33;;;0.85;;